sensor_id;sensor_type;location;lat;lon;timestamp;P1;durP1;ratioP1;P2;durP2;ratioP2
36415;SDS011;22447;44.530;18.620;2023-08-06T00:00:25;17.15;;;9.50;;
36415;SDS011;22447;44.530;18.620;2023-08-06T00:02:52;22.67;;;10.70;;
36415;SDS011;22447;44.530;18.620;2023-08-06T00:05:18;17.85;;;9.77;;
36415;SDS011;22447;44.530;18.620;2023-08-06T00:07:48;17.15;;;9.70;;
36415;SDS011;22447;44.530;18.620;2023-08-06T00:10:15;14.48;;;9.02;;
36415;SDS011;22447;44.530;18.620;2023-08-06T00:12:41;13.82;;;9.32;;
36415;SDS011;22447;44.530;18.620;2023-08-06T00:15:08;17.70;;;9.85;;
36415;SDS011;22447;44.530;18.620;2023-08-06T00:17:35;14.95;;;9.68;;
36415;SDS011;22447;44.530;18.620;2023-08-06T00:20:01;15.30;;;8.95;;
36415;SDS011;22447;44.530;18.620;2023-08-06T00:22:31;16.17;;;8.98;;
36415;SDS011;22447;44.530;18.620;2023-08-06T00:24:57;13.30;;;8.52;;
36415;SDS011;22447;44.530;18.620;2023-08-06T00:27:23;20.05;;;9.88;;
36415;SDS011;22447;44.530;18.620;2023-08-06T00:29:51;12.88;;;9.15;;
36415;SDS011;22447;44.530;18.620;2023-08-06T00:32:17;18.38;;;9.98;;
36415;SDS011;22447;44.530;18.620;2023-08-06T00:34:43;20.85;;;10.40;;
36415;SDS011;22447;44.530;18.620;2023-08-06T00:37:09;25.73;;;9.48;;
36415;SDS011;22447;44.530;18.620;2023-08-06T00:39:35;26.85;;;10.82;;
36415;SDS011;22447;44.530;18.620;2023-08-06T00:42:01;26.17;;;9.80;;
36415;SDS011;22447;44.530;18.620;2023-08-06T00:44:27;31.83;;;10.15;;
36415;SDS011;22447;44.530;18.620;2023-08-06T00:46:53;22.13;;;9.10;;
36415;SDS011;22447;44.530;18.620;2023-08-06T00:49:19;26.92;;;9.73;;
36415;SDS011;22447;44.530;18.620;2023-08-06T00:51:45;16.80;;;8.82;;
36415;SDS011;22447;44.530;18.620;2023-08-06T00:54:12;18.80;;;8.77;;
36415;SDS011;22447;44.530;18.620;2023-08-06T00:56:39;15.40;;;8.73;;
36415;SDS011;22447;44.530;18.620;2023-08-06T00:59:07;14.55;;;9.25;;
36415;SDS011;22447;44.530;18.620;2023-08-06T01:01:34;15.85;;;9.45;;
36415;SDS011;22447;44.530;18.620;2023-08-06T01:04:00;20.95;;;10.07;;
36415;SDS011;22447;44.530;18.620;2023-08-06T01:06:34;20.48;;;10.18;;
36415;SDS011;22447;44.530;18.620;2023-08-06T01:12:09;10.98;;;8.88;;
36415;SDS011;22447;44.530;18.620;2023-08-06T01:14:48;13.52;;;8.48;;
36415;SDS011;22447;44.530;18.620;2023-08-06T01:17:23;13.68;;;7.00;;
36415;SDS011;22447;44.530;18.620;2023-08-06T01:19:52;9.13;;;6.65;;
36415;SDS011;22447;44.530;18.620;2023-08-06T01:22:18;13.77;;;8.00;;
36415;SDS011;22447;44.530;18.620;2023-08-06T01:24:47;13.15;;;7.28;;
36415;SDS011;22447;44.530;18.620;2023-08-06T01:27:28;12.10;;;6.68;;
36415;SDS011;22447;44.530;18.620;2023-08-06T01:30:05;13.82;;;6.47;;
36415;SDS011;22447;44.530;18.620;2023-08-06T01:32:37;9.80;;;6.25;;
36415;SDS011;22447;44.530;18.620;2023-08-06T01:37:35;8.63;;;5.13;;
36415;SDS011;22447;44.530;18.620;2023-08-06T01:40:05;10.23;;;5.10;;
36415;SDS011;22447;44.530;18.620;2023-08-06T01:42:38;9.90;;;5.25;;
36415;SDS011;22447;44.530;18.620;2023-08-06T01:45:05;11.32;;;4.82;;
36415;SDS011;22447;44.530;18.620;2023-08-06T01:47:33;10.55;;;4.60;;
36415;SDS011;22447;44.530;18.620;2023-08-06T01:49:59;6.15;;;3.40;;
36415;SDS011;22447;44.530;18.620;2023-08-06T01:52:25;5.80;;;4.03;;
36415;SDS011;22447;44.530;18.620;2023-08-06T01:54:52;6.47;;;3.83;;
36415;SDS011;22447;44.530;18.620;2023-08-06T01:57:19;5.40;;;3.95;;
36415;SDS011;22447;44.530;18.620;2023-08-06T01:59:45;8.32;;;3.95;;
36415;SDS011;22447;44.530;18.620;2023-08-06T02:02:10;7.00;;;3.78;;
36415;SDS011;22447;44.530;18.620;2023-08-06T02:04:37;5.95;;;3.47;;
36415;SDS011;22447;44.530;18.620;2023-08-06T02:07:03;5.50;;;3.47;;
36415;SDS011;22447;44.530;18.620;2023-08-06T02:09:29;9.07;;;3.63;;
36415;SDS011;22447;44.530;18.620;2023-08-06T02:11:55;9.77;;;3.80;;
36415;SDS011;22447;44.530;18.620;2023-08-06T02:14:21;10.63;;;3.97;;
36415;SDS011;22447;44.530;18.620;2023-08-06T02:16:47;8.90;;;3.90;;
36415;SDS011;22447;44.530;18.620;2023-08-06T02:19:14;13.73;;;3.72;;
36415;SDS011;22447;44.530;18.620;2023-08-06T02:21:40;5.60;;;3.65;;
36415;SDS011;22447;44.530;18.620;2023-08-06T02:24:06;7.45;;;3.20;;
36415;SDS011;22447;44.530;18.620;2023-08-06T02:26:33;7.90;;;3.60;;
36415;SDS011;22447;44.530;18.620;2023-08-06T02:28:59;8.57;;;3.78;;
36415;SDS011;22447;44.530;18.620;2023-08-06T02:31:24;9.60;;;3.90;;
36415;SDS011;22447;44.530;18.620;2023-08-06T02:33:50;8.50;;;3.10;;
36415;SDS011;22447;44.530;18.620;2023-08-06T02:36:17;6.80;;;3.58;;
36415;SDS011;22447;44.530;18.620;2023-08-06T02:38:43;7.32;;;3.78;;
36415;SDS011;22447;44.530;18.620;2023-08-06T02:41:09;5.32;;;3.72;;
36415;SDS011;22447;44.530;18.620;2023-08-06T02:43:35;9.00;;;4.03;;
36415;SDS011;22447;44.530;18.620;2023-08-06T02:46:01;5.72;;;3.83;;
36415;SDS011;22447;44.530;18.620;2023-08-06T02:48:27;9.23;;;4.00;;
36415;SDS011;22447;44.530;18.620;2023-08-06T02:50:56;6.80;;;3.60;;
36415;SDS011;22447;44.530;18.620;2023-08-06T02:53:23;7.57;;;4.10;;
36415;SDS011;22447;44.530;18.620;2023-08-06T02:55:50;7.47;;;4.70;;
36415;SDS011;22447;44.530;18.620;2023-08-06T02:58:19;13.07;;;5.90;;
36415;SDS011;22447;44.530;18.620;2023-08-06T03:01:02;9.10;;;5.28;;
36415;SDS011;22447;44.530;18.620;2023-08-06T03:03:35;11.38;;;5.68;;
36415;SDS011;22447;44.530;18.620;2023-08-06T03:06:02;11.95;;;5.82;;
36415;SDS011;22447;44.530;18.620;2023-08-06T03:08:46;16.65;;;6.65;;
36415;SDS011;22447;44.530;18.620;2023-08-06T03:11:12;16.92;;;7.03;;
36415;SDS011;22447;44.530;18.620;2023-08-06T03:13:39;16.13;;;6.78;;
36415;SDS011;22447;44.530;18.620;2023-08-06T03:16:05;15.48;;;7.22;;
36415;SDS011;22447;44.530;18.620;2023-08-06T03:18:32;14.35;;;7.28;;
36415;SDS011;22447;44.530;18.620;2023-08-06T03:21:01;19.90;;;7.07;;
36415;SDS011;22447;44.530;18.620;2023-08-06T03:23:29;16.70;;;6.72;;
36415;SDS011;22447;44.530;18.620;2023-08-06T03:25:56;19.77;;;7.25;;
36415;SDS011;22447;44.530;18.620;2023-08-06T03:28:30;23.15;;;7.18;;
36415;SDS011;22447;44.530;18.620;2023-08-06T03:30:59;16.08;;;5.78;;
36415;SDS011;22447;44.530;18.620;2023-08-06T03:33:29;17.23;;;5.50;;
36415;SDS011;22447;44.530;18.620;2023-08-06T03:35:58;17.85;;;5.90;;
36415;SDS011;22447;44.530;18.620;2023-08-06T03:38:23;8.98;;;5.05;;
36415;SDS011;22447;44.530;18.620;2023-08-06T03:40:49;15.73;;;5.13;;
36415;SDS011;22447;44.530;18.620;2023-08-06T03:43:15;9.05;;;4.13;;
36415;SDS011;22447;44.530;18.620;2023-08-06T03:45:42;11.48;;;4.75;;
36415;SDS011;22447;44.530;18.620;2023-08-06T03:48:09;8.63;;;3.72;;
36415;SDS011;22447;44.530;18.620;2023-08-06T03:50:35;8.15;;;4.00;;
36415;SDS011;22447;44.530;18.620;2023-08-06T03:53:01;7.30;;;3.97;;
36415;SDS011;22447;44.530;18.620;2023-08-06T03:55:28;10.73;;;4.20;;
36415;SDS011;22447;44.530;18.620;2023-08-06T03:57:54;8.25;;;3.40;;
36415;SDS011;22447;44.530;18.620;2023-08-06T04:00:20;5.70;;;3.70;;
36415;SDS011;22447;44.530;18.620;2023-08-06T04:02:51;8.95;;;4.72;;
36415;SDS011;22447;44.530;18.620;2023-08-06T04:05:17;5.63;;;4.15;;
36415;SDS011;22447;44.530;18.620;2023-08-06T04:07:43;6.55;;;3.55;;
36415;SDS011;22447;44.530;18.620;2023-08-06T04:10:09;8.82;;;3.60;;
36415;SDS011;22447;44.530;18.620;2023-08-06T04:12:35;5.63;;;4.18;;
36415;SDS011;22447;44.530;18.620;2023-08-06T04:15:03;9.20;;;3.90;;
36415;SDS011;22447;44.530;18.620;2023-08-06T04:17:29;7.10;;;4.10;;
36415;SDS011;22447;44.530;18.620;2023-08-06T04:19:55;6.22;;;3.47;;
36415;SDS011;22447;44.530;18.620;2023-08-06T04:22:24;6.22;;;3.60;;
36415;SDS011;22447;44.530;18.620;2023-08-06T04:24:50;4.88;;;4.03;;
36415;SDS011;22447;44.530;18.620;2023-08-06T04:27:19;6.78;;;3.80;;
36415;SDS011;22447;44.530;18.620;2023-08-06T04:29:47;7.00;;;4.10;;
36415;SDS011;22447;44.530;18.620;2023-08-06T04:32:13;7.45;;;3.90;;
36415;SDS011;22447;44.530;18.620;2023-08-06T04:34:44;6.40;;;3.53;;
36415;SDS011;22447;44.530;18.620;2023-08-06T04:37:10;8.80;;;4.03;;
36415;SDS011;22447;44.530;18.620;2023-08-06T04:39:37;9.00;;;3.78;;
36415;SDS011;22447;44.530;18.620;2023-08-06T04:42:03;8.18;;;3.80;;
36415;SDS011;22447;44.530;18.620;2023-08-06T04:44:30;4.55;;;3.25;;
36415;SDS011;22447;44.530;18.620;2023-08-06T04:46:56;7.50;;;3.83;;
36415;SDS011;22447;44.530;18.620;2023-08-06T04:49:22;6.40;;;2.80;;
36415;SDS011;22447;44.530;18.620;2023-08-06T04:51:48;10.90;;;3.72;;
36415;SDS011;22447;44.530;18.620;2023-08-06T04:54:14;5.00;;;2.85;;
36415;SDS011;22447;44.530;18.620;2023-08-06T04:56:40;5.20;;;2.90;;
36415;SDS011;22447;44.530;18.620;2023-08-06T04:59:06;6.22;;;3.28;;
36415;SDS011;22447;44.530;18.620;2023-08-06T05:01:32;12.90;;;3.00;;
36415;SDS011;22447;44.530;18.620;2023-08-06T05:03:58;8.23;;;2.78;;
36415;SDS011;22447;44.530;18.620;2023-08-06T05:06:24;4.22;;;2.30;;
36415;SDS011;22447;44.530;18.620;2023-08-06T05:08:49;9.23;;;3.60;;
36415;SDS011;22447;44.530;18.620;2023-08-06T05:11:15;5.90;;;2.92;;
36415;SDS011;22447;44.530;18.620;2023-08-06T05:13:41;5.95;;;2.25;;
36415;SDS011;22447;44.530;18.620;2023-08-06T05:16:07;3.20;;;1.80;;
36415;SDS011;22447;44.530;18.620;2023-08-06T05:18:33;6.50;;;2.22;;
36415;SDS011;22447;44.530;18.620;2023-08-06T05:20:59;3.47;;;2.00;;
36415;SDS011;22447;44.530;18.620;2023-08-06T05:23:25;2.17;;;1.60;;
36415;SDS011;22447;44.530;18.620;2023-08-06T05:25:51;3.40;;;2.20;;
36415;SDS011;22447;44.530;18.620;2023-08-06T05:28:17;2.40;;;1.90;;
36415;SDS011;22447;44.530;18.620;2023-08-06T05:30:43;2.55;;;1.80;;
36415;SDS011;22447;44.530;18.620;2023-08-06T05:33:09;4.80;;;1.90;;
36415;SDS011;22447;44.530;18.620;2023-08-06T05:35:35;2.35;;;1.70;;
36415;SDS011;22447;44.530;18.620;2023-08-06T05:38:01;6.78;;;1.90;;
36415;SDS011;22447;44.530;18.620;2023-08-06T05:40:27;2.97;;;2.05;;
36415;SDS011;22447;44.530;18.620;2023-08-06T05:42:53;4.25;;;1.40;;
36415;SDS011;22447;44.530;18.620;2023-08-06T05:45:19;4.55;;;2.17;;
36415;SDS011;22447;44.530;18.620;2023-08-06T05:47:47;6.10;;;2.20;;
36415;SDS011;22447;44.530;18.620;2023-08-06T05:50:13;2.22;;;1.48;;
36415;SDS011;22447;44.530;18.620;2023-08-06T05:52:39;11.30;;;2.83;;
36415;SDS011;22447;44.530;18.620;2023-08-06T05:55:05;11.50;;;2.80;;
36415;SDS011;22447;44.530;18.620;2023-08-06T05:57:32;14.23;;;2.65;;
36415;SDS011;22447;44.530;18.620;2023-08-06T05:59:58;10.88;;;2.92;;
36415;SDS011;22447;44.530;18.620;2023-08-06T06:02:24;7.53;;;2.50;;
36415;SDS011;22447;44.530;18.620;2023-08-06T06:04:49;7.50;;;2.30;;
36415;SDS011;22447;44.530;18.620;2023-08-06T06:07:15;5.53;;;2.22;;
36415;SDS011;22447;44.530;18.620;2023-08-06T06:09:41;3.97;;;1.63;;
36415;SDS011;22447;44.530;18.620;2023-08-06T06:12:07;3.33;;;1.73;;
36415;SDS011;22447;44.530;18.620;2023-08-06T06:14:33;3.13;;;2.45;;
36415;SDS011;22447;44.530;18.620;2023-08-06T06:16:59;2.03;;;1.60;;
36415;SDS011;22447;44.530;18.620;2023-08-06T06:19:26;3.08;;;1.70;;
36415;SDS011;22447;44.530;18.620;2023-08-06T06:21:52;3.83;;;1.98;;
36415;SDS011;22447;44.530;18.620;2023-08-06T06:24:19;4.97;;;2.20;;
36415;SDS011;22447;44.530;18.620;2023-08-06T06:26:44;6.38;;;2.20;;
36415;SDS011;22447;44.530;18.620;2023-08-06T06:29:10;2.22;;;2.03;;
36415;SDS011;22447;44.530;18.620;2023-08-06T06:31:36;5.60;;;1.60;;
36415;SDS011;22447;44.530;18.620;2023-08-06T06:34:02;3.13;;;1.80;;
36415;SDS011;22447;44.530;18.620;2023-08-06T06:36:28;3.05;;;1.60;;
36415;SDS011;22447;44.530;18.620;2023-08-06T06:38:54;3.70;;;1.92;;
36415;SDS011;22447;44.530;18.620;2023-08-06T06:41:20;2.78;;;2.15;;
36415;SDS011;22447;44.530;18.620;2023-08-06T06:43:46;1.90;;;1.75;;
36415;SDS011;22447;44.530;18.620;2023-08-06T06:46:12;2.90;;;2.15;;
36415;SDS011;22447;44.530;18.620;2023-08-06T06:48:38;3.17;;;2.00;;
36415;SDS011;22447;44.530;18.620;2023-08-06T06:51:04;2.30;;;1.60;;
36415;SDS011;22447;44.530;18.620;2023-08-06T06:53:30;7.95;;;1.92;;
36415;SDS011;22447;44.530;18.620;2023-08-06T06:56:01;4.03;;;2.13;;
36415;SDS011;22447;44.530;18.620;2023-08-06T06:58:28;3.90;;;1.67;;
36415;SDS011;22447;44.530;18.620;2023-08-06T07:00:54;2.17;;;1.77;;
36415;SDS011;22447;44.530;18.620;2023-08-06T07:03:20;4.53;;;1.40;;
36415;SDS011;22447;44.530;18.620;2023-08-06T07:05:46;3.33;;;1.67;;
36415;SDS011;22447;44.530;18.620;2023-08-06T07:08:12;1.20;;;1.10;;
36415;SDS011;22447;44.530;18.620;2023-08-06T07:10:40;2.65;;;1.33;;
36415;SDS011;22447;44.530;18.620;2023-08-06T07:13:07;1.48;;;1.10;;
36415;SDS011;22447;44.530;18.620;2023-08-06T07:15:33;2.50;;;1.40;;
36415;SDS011;22447;44.530;18.620;2023-08-06T07:17:59;3.95;;;1.08;;
36415;SDS011;22447;44.530;18.620;2023-08-06T07:20:25;1.23;;;1.00;;
36415;SDS011;22447;44.530;18.620;2023-08-06T07:22:58;1.52;;;1.30;;
36415;SDS011;22447;44.530;18.620;2023-08-06T07:25:24;2.83;;;2.03;;
36415;SDS011;22447;44.530;18.620;2023-08-06T07:27:50;2.13;;;1.25;;
36415;SDS011;22447;44.530;18.620;2023-08-06T07:30:16;3.53;;;1.65;;
36415;SDS011;22447;44.530;18.620;2023-08-06T07:32:42;3.95;;;1.58;;
36415;SDS011;22447;44.530;18.620;2023-08-06T07:35:08;2.17;;;1.40;;
36415;SDS011;22447;44.530;18.620;2023-08-06T07:37:38;2.73;;;1.40;;
36415;SDS011;22447;44.530;18.620;2023-08-06T07:40:04;3.63;;;1.05;;
36415;SDS011;22447;44.530;18.620;2023-08-06T07:42:30;4.43;;;1.13;;
36415;SDS011;22447;44.530;18.620;2023-08-06T07:44:57;1.50;;;1.02;;
36415;SDS011;22447;44.530;18.620;2023-08-06T07:47:24;4.05;;;1.35;;
36415;SDS011;22447;44.530;18.620;2023-08-06T07:49:50;5.40;;;1.65;;
36415;SDS011;22447;44.530;18.620;2023-08-06T07:52:16;3.20;;;1.48;;
36415;SDS011;22447;44.530;18.620;2023-08-06T07:54:42;1.25;;;1.00;;
36415;SDS011;22447;44.530;18.620;2023-08-06T07:57:08;1.60;;;1.50;;
36415;SDS011;22447;44.530;18.620;2023-08-06T07:59:34;2.47;;;1.10;;
36415;SDS011;22447;44.530;18.620;2023-08-06T08:02:00;2.92;;;1.02;;
36415;SDS011;22447;44.530;18.620;2023-08-06T08:04:26;3.55;;;1.58;;
36415;SDS011;22447;44.530;18.620;2023-08-06T08:06:52;4.97;;;1.63;;
36415;SDS011;22447;44.530;18.620;2023-08-06T08:09:18;1.77;;;1.20;;
36415;SDS011;22447;44.530;18.620;2023-08-06T08:11:44;2.60;;;1.23;;
36415;SDS011;22447;44.530;18.620;2023-08-06T08:14:11;1.63;;;1.20;;
36415;SDS011;22447;44.530;18.620;2023-08-06T08:16:37;3.10;;;1.55;;
36415;SDS011;22447;44.530;18.620;2023-08-06T08:19:03;1.77;;;1.42;;
36415;SDS011;22447;44.530;18.620;2023-08-06T08:21:29;2.75;;;1.35;;
36415;SDS011;22447;44.530;18.620;2023-08-06T08:23:55;5.07;;;1.33;;
36415;SDS011;22447;44.530;18.620;2023-08-06T08:26:21;1.63;;;1.52;;
36415;SDS011;22447;44.530;18.620;2023-08-06T08:28:47;3.80;;;2.17;;
36415;SDS011;22447;44.530;18.620;2023-08-06T08:31:13;2.60;;;1.20;;
36415;SDS011;22447;44.530;18.620;2023-08-06T08:33:39;1.48;;;1.20;;
36415;SDS011;22447;44.530;18.620;2023-08-06T08:36:05;2.00;;;1.33;;
36415;SDS011;22447;44.530;18.620;2023-08-06T08:38:31;1.55;;;1.30;;
36415;SDS011;22447;44.530;18.620;2023-08-06T08:40:57;2.72;;;1.10;;
36415;SDS011;22447;44.530;18.620;2023-08-06T08:43:23;3.13;;;1.10;;
36415;SDS011;22447;44.530;18.620;2023-08-06T08:45:50;1.52;;;1.05;;
36415;SDS011;22447;44.530;18.620;2023-08-06T08:48:17;3.65;;;2.17;;
36415;SDS011;22447;44.530;18.620;2023-08-06T08:50:45;4.20;;;1.30;;
36415;SDS011;22447;44.530;18.620;2023-08-06T08:53:15;3.35;;;1.13;;
36415;SDS011;22447;44.530;18.620;2023-08-06T08:55:46;1.58;;;1.10;;
36415;SDS011;22447;44.530;18.620;2023-08-06T08:58:13;3.17;;;1.00;;
36415;SDS011;22447;44.530;18.620;2023-08-06T09:00:43;2.78;;;1.17;;
36415;SDS011;22447;44.530;18.620;2023-08-06T09:03:16;3.08;;;1.35;;
36415;SDS011;22447;44.530;18.620;2023-08-06T09:05:43;2.13;;;1.50;;
36415;SDS011;22447;44.530;18.620;2023-08-06T09:08:11;2.10;;;1.50;;
36415;SDS011;22447;44.530;18.620;2023-08-06T09:10:41;1.67;;;1.50;;
36415;SDS011;22447;44.530;18.620;2023-08-06T09:13:09;1.75;;;1.58;;
36415;SDS011;22447;44.530;18.620;2023-08-06T09:15:37;3.25;;;2.00;;
36415;SDS011;22447;44.530;18.620;2023-08-06T09:18:09;3.53;;;1.98;;
36415;SDS011;22447;44.530;18.620;2023-08-06T09:20:37;1.80;;;0.80;;
36415;SDS011;22447;44.530;18.620;2023-08-06T09:23:10;2.70;;;1.00;;
36415;SDS011;22447;44.530;18.620;2023-08-06T09:25:39;1.88;;;0.90;;
36415;SDS011;22447;44.530;18.620;2023-08-06T09:28:08;1.08;;;0.98;;
36415;SDS011;22447;44.530;18.620;2023-08-06T09:30:35;1.25;;;1.08;;
36415;SDS011;22447;44.530;18.620;2023-08-06T09:33:02;3.53;;;1.05;;
36415;SDS011;22447;44.530;18.620;2023-08-06T09:35:29;3.08;;;1.10;;
36415;SDS011;22447;44.530;18.620;2023-08-06T09:38:17;5.18;;;1.08;;
36415;SDS011;22447;44.530;18.620;2023-08-06T09:40:42;3.47;;;0.90;;
36415;SDS011;22447;44.530;18.620;2023-08-06T09:43:08;3.30;;;0.90;;
36415;SDS011;22447;44.530;18.620;2023-08-06T09:45:37;2.90;;;0.93;;
36415;SDS011;22447;44.530;18.620;2023-08-06T09:48:04;1.25;;;1.10;;
36415;SDS011;22447;44.530;18.620;2023-08-06T09:50:32;2.85;;;1.42;;
36415;SDS011;22447;44.530;18.620;2023-08-06T09:53:02;1.40;;;1.17;;
36415;SDS011;22447;44.530;18.620;2023-08-06T09:55:30;1.67;;;1.00;;
36415;SDS011;22447;44.530;18.620;2023-08-06T09:57:57;0.90;;;0.80;;
36415;SDS011;22447;44.530;18.620;2023-08-06T10:00:24;1.25;;;0.90;;
36415;SDS011;22447;44.530;18.620;2023-08-06T10:02:50;1.00;;;0.88;;
36415;SDS011;22447;44.530;18.620;2023-08-06T10:05:20;1.27;;;0.88;;
36415;SDS011;22447;44.530;18.620;2023-08-06T10:07:47;2.47;;;0.95;;
36415;SDS011;22447;44.530;18.620;2023-08-06T10:10:16;1.25;;;0.80;;
36415;SDS011;22447;44.530;18.620;2023-08-06T10:12:46;2.00;;;1.08;;
36415;SDS011;22447;44.530;18.620;2023-08-06T10:15:21;1.02;;;0.90;;
36415;SDS011;22447;44.530;18.620;2023-08-06T10:17:51;0.90;;;0.65;;
36415;SDS011;22447;44.530;18.620;2023-08-06T10:20:19;3.03;;;0.83;;
36415;SDS011;22447;44.530;18.620;2023-08-06T10:23:03;1.08;;;0.80;;
36415;SDS011;22447;44.530;18.620;2023-08-06T10:25:31;3.13;;;0.80;;
36415;SDS011;22447;44.530;18.620;2023-08-06T10:27:58;2.80;;;1.02;;
36415;SDS011;22447;44.530;18.620;2023-08-06T10:38:10;3.53;;;1.25;;
36415;SDS011;22447;44.530;18.620;2023-08-06T10:40:42;1.42;;;0.65;;
36415;SDS011;22447;44.530;18.620;2023-08-06T10:43:27;0.80;;;0.80;;
36415;SDS011;22447;44.530;18.620;2023-08-06T10:45:54;2.63;;;0.90;;
36415;SDS011;22447;44.530;18.620;2023-08-06T10:48:30;1.92;;;1.25;;
36415;SDS011;22447;44.530;18.620;2023-08-06T10:50:59;4.30;;;1.15;;
36415;SDS011;22447;44.530;18.620;2023-08-06T10:53:25;2.95;;;1.80;;
36415;SDS011;22447;44.530;18.620;2023-08-06T10:55:51;3.22;;;1.50;;
36415;SDS011;22447;44.530;18.620;2023-08-06T10:58:17;2.70;;;0.85;;
36415;SDS011;22447;44.530;18.620;2023-08-06T11:00:43;1.10;;;0.70;;
36415;SDS011;22447;44.530;18.620;2023-08-06T11:03:10;1.67;;;0.70;;
36415;SDS011;22447;44.530;18.620;2023-08-06T11:05:36;2.63;;;0.95;;
36415;SDS011;22447;44.530;18.620;2023-08-06T11:08:02;1.00;;;0.80;;
36415;SDS011;22447;44.530;18.620;2023-08-06T11:10:28;2.70;;;0.82;;
36415;SDS011;22447;44.530;18.620;2023-08-06T11:12:54;3.30;;;1.05;;
36415;SDS011;22447;44.530;18.620;2023-08-06T11:15:25;1.75;;;0.90;;
36415;SDS011;22447;44.530;18.620;2023-08-06T11:17:51;1.98;;;0.80;;
36415;SDS011;22447;44.530;18.620;2023-08-06T11:20:17;5.38;;;1.52;;
36415;SDS011;22447;44.530;18.620;2023-08-06T11:22:47;3.22;;;0.98;;
36415;SDS011;22447;44.530;18.620;2023-08-06T11:25:13;1.23;;;0.80;;
36415;SDS011;22447;44.530;18.620;2023-08-06T11:27:39;4.05;;;1.10;;
36415;SDS011;22447;44.530;18.620;2023-08-06T11:30:05;1.10;;;0.73;;
36415;SDS011;22447;44.530;18.620;2023-08-06T11:32:32;1.65;;;0.90;;
36415;SDS011;22447;44.530;18.620;2023-08-06T11:34:58;5.80;;;1.27;;
36415;SDS011;22447;44.530;18.620;2023-08-06T11:37:34;4.22;;;1.35;;
36415;SDS011;22447;44.530;18.620;2023-08-06T11:40:01;0.95;;;0.80;;
36415;SDS011;22447;44.530;18.620;2023-08-06T11:42:36;3.90;;;1.20;;
36415;SDS011;22447;44.530;18.620;2023-08-06T11:45:03;2.25;;;0.80;;
36415;SDS011;22447;44.530;18.620;2023-08-06T11:47:29;2.72;;;1.30;;
36415;SDS011;22447;44.530;18.620;2023-08-06T11:49:56;4.32;;;1.20;;
36415;SDS011;22447;44.530;18.620;2023-08-06T11:55:00;1.63;;;0.90;;
36415;SDS011;22447;44.530;18.620;2023-08-06T11:57:35;4.97;;;1.42;;
36415;SDS011;22447;44.530;18.620;2023-08-06T12:00:03;2.50;;;1.17;;
36415;SDS011;22447;44.530;18.620;2023-08-06T12:02:41;1.77;;;0.60;;
36415;SDS011;22447;44.530;18.620;2023-08-06T12:07:44;1.35;;;0.47;;
36415;SDS011;22447;44.530;18.620;2023-08-06T12:10:12;3.90;;;0.80;;
36415;SDS011;22447;44.530;18.620;2023-08-06T12:12:39;2.80;;;1.13;;
36415;SDS011;22447;44.530;18.620;2023-08-06T12:15:06;5.65;;;0.82;;
36415;SDS011;22447;44.530;18.620;2023-08-06T12:17:34;2.85;;;0.77;;
36415;SDS011;22447;44.530;18.620;2023-08-06T12:20:01;2.63;;;1.13;;
36415;SDS011;22447;44.530;18.620;2023-08-06T12:22:31;5.05;;;1.20;;
36415;SDS011;22447;44.530;18.620;2023-08-06T12:25:00;5.55;;;1.35;;
36415;SDS011;22447;44.530;18.620;2023-08-06T12:27:27;7.05;;;1.48;;
36415;SDS011;22447;44.530;18.620;2023-08-06T12:29:53;8.15;;;1.75;;
36415;SDS011;22447;44.530;18.620;2023-08-06T12:32:19;9.07;;;1.48;;
36415;SDS011;22447;44.530;18.620;2023-08-06T12:34:45;2.67;;;1.00;;
36415;SDS011;22447;44.530;18.620;2023-08-06T12:37:11;11.15;;;1.48;;
36415;SDS011;22447;44.530;18.620;2023-08-06T12:39:38;2.17;;;0.60;;
36415;SDS011;22447;44.530;18.620;2023-08-06T12:42:05;5.53;;;0.82;;
36415;SDS011;22447;44.530;18.620;2023-08-06T12:44:31;12.25;;;2.10;;
36415;SDS011;22447;44.530;18.620;2023-08-06T12:46:58;18.02;;;3.63;;
36415;SDS011;22447;44.530;18.620;2023-08-06T12:49:24;25.40;;;3.15;;
36415;SDS011;22447;44.530;18.620;2023-08-06T12:51:52;9.38;;;2.00;;
36415;SDS011;22447;44.530;18.620;2023-08-06T12:54:19;4.78;;;1.10;;
36415;SDS011;22447;44.530;18.620;2023-08-06T12:56:46;5.97;;;1.85;;
36415;SDS011;22447;44.530;18.620;2023-08-06T12:59:13;6.38;;;1.63;;
36415;SDS011;22447;44.530;18.620;2023-08-06T13:01:40;11.77;;;2.22;;
36415;SDS011;22447;44.530;18.620;2023-08-06T13:04:07;11.93;;;2.45;;
36415;SDS011;22447;44.530;18.620;2023-08-06T13:06:33;7.88;;;1.65;;
36415;SDS011;22447;44.530;18.620;2023-08-06T13:11:32;12.43;;;2.13;;
36415;SDS011;22447;44.530;18.620;2023-08-06T13:14:08;11.98;;;2.22;;
36415;SDS011;22447;44.530;18.620;2023-08-06T13:16:39;3.75;;;1.48;;
36415;SDS011;22447;44.530;18.620;2023-08-06T13:19:06;8.88;;;2.60;;
36415;SDS011;22447;44.530;18.620;2023-08-06T13:21:33;8.45;;;2.75;;
36415;SDS011;22447;44.530;18.620;2023-08-06T13:24:03;3.22;;;1.38;;
36415;SDS011;22447;44.530;18.620;2023-08-06T13:26:29;4.28;;;1.08;;
36415;SDS011;22447;44.530;18.620;2023-08-06T13:28:59;2.22;;;0.80;;
36415;SDS011;22447;44.530;18.620;2023-08-06T13:31:26;2.95;;;0.93;;
36415;SDS011;22447;44.530;18.620;2023-08-06T13:33:56;1.30;;;0.75;;
36415;SDS011;22447;44.530;18.620;2023-08-06T13:36:23;1.65;;;0.80;;
36415;SDS011;22447;44.530;18.620;2023-08-06T13:38:50;2.47;;;0.60;;
36415;SDS011;22447;44.530;18.620;2023-08-06T13:41:16;2.22;;;0.80;;
36415;SDS011;22447;44.530;18.620;2023-08-06T13:43:42;2.22;;;0.85;;
36415;SDS011;22447;44.530;18.620;2023-08-06T13:46:09;2.20;;;1.30;;
36415;SDS011;22447;44.530;18.620;2023-08-06T13:48:40;1.33;;;0.80;;
36415;SDS011;22447;44.530;18.620;2023-08-06T13:51:06;5.55;;;0.60;;
36415;SDS011;22447;44.530;18.620;2023-08-06T13:53:31;2.95;;;0.85;;
36415;SDS011;22447;44.530;18.620;2023-08-06T13:55:57;2.00;;;1.10;;
36415;SDS011;22447;44.530;18.620;2023-08-06T13:58:23;1.20;;;0.82;;
36415;SDS011;22447;44.530;18.620;2023-08-06T14:00:51;1.35;;;0.75;;
36415;SDS011;22447;44.530;18.620;2023-08-06T14:03:19;3.22;;;0.90;;
36415;SDS011;22447;44.530;18.620;2023-08-06T14:05:46;2.75;;;0.88;;
36415;SDS011;22447;44.530;18.620;2023-08-06T14:08:12;2.50;;;0.80;;
36415;SDS011;22447;44.530;18.620;2023-08-06T14:10:38;1.60;;;0.95;;
36415;SDS011;22447;44.530;18.620;2023-08-06T14:13:04;1.20;;;1.05;;
36415;SDS011;22447;44.530;18.620;2023-08-06T14:15:30;1.10;;;0.70;;
36415;SDS011;22447;44.530;18.620;2023-08-06T14:17:58;1.80;;;0.93;;
36415;SDS011;22447;44.530;18.620;2023-08-06T14:20:24;1.58;;;0.70;;
36415;SDS011;22447;44.530;18.620;2023-08-06T14:22:50;3.08;;;0.82;;
36415;SDS011;22447;44.530;18.620;2023-08-06T14:25:16;1.90;;;0.90;;
36415;SDS011;22447;44.530;18.620;2023-08-06T14:27:42;2.53;;;0.90;;
36415;SDS011;22447;44.530;18.620;2023-08-06T14:30:08;0.90;;;0.73;;
36415;SDS011;22447;44.530;18.620;2023-08-06T14:32:34;3.55;;;1.58;;
36415;SDS011;22447;44.530;18.620;2023-08-06T14:35:00;1.08;;;0.90;;
36415;SDS011;22447;44.530;18.620;2023-08-06T14:37:26;5.00;;;1.10;;
36415;SDS011;22447;44.530;18.620;2023-08-06T14:39:52;4.30;;;1.05;;
36415;SDS011;22447;44.530;18.620;2023-08-06T14:42:18;6.43;;;1.52;;
36415;SDS011;22447;44.530;18.620;2023-08-06T14:44:44;2.00;;;1.20;;
36415;SDS011;22447;44.530;18.620;2023-08-06T14:47:09;2.17;;;1.20;;
36415;SDS011;22447;44.530;18.620;2023-08-06T14:49:35;4.13;;;1.73;;
36415;SDS011;22447;44.530;18.620;2023-08-06T14:52:02;9.63;;;2.47;;